Time;durP1;ratioP1;P1;durP2;ratioP2;P2;SDS_P1;SDS_P2;PMS_P1;PMS_P2;Temp;Humidity;BMP_temperature;BMP_pressure;BME280_temperature;BME280_humidity;BME280_pressure;Samples;Min_cycle;Max_cycle;Signal;HPM_P1;HPM_P2
2023/11/06 00:00:16;;;;;;;4.05;1.50;;;9.80;99.90;;;;;;4812726;29;20250;-89
2023/11/06 00:02:43;;;;;;;5.47;1.77;;;9.80;99.90;;;;;;4813044;29;20641;-94
2023/11/06 00:05:10;;;;;;;6.40;1.50;;;9.80;99.90;;;;;;4812563;29;20190;-94
2023/11/06 00:07:37;;;;;;;3.58;1.45;;;9.80;99.90;;;;;;4815055;29;20234;-91
2023/11/06 00:10:03;;;;;;;3.15;1.15;;;9.80;99.90;;;;;;4812325;29;20254;-93
2023/11/06 00:12:30;;;;;;;4.43;1.60;;;9.80;99.90;;;;;;4812285;29;20613;-92
2023/11/06 00:14:56;;;;;;;3.03;1.48;;;9.80;99.90;;;;;;4812162;29;20626;-89
2023/11/06 00:17:23;;;;;;;5.15;1.60;;;9.80;99.90;;;;;;4811839;29;20198;-89
2023/11/06 00:19:49;;;;;;;5.57;1.45;;;9.80;99.90;;;;;;4812021;29;20194;-90
2023/11/06 00:22:16;;;;;;;5.93;1.60;;;9.80;99.90;;;;;;4811745;29;20226;-88
2023/11/06 00:24:42;;;;;;;6.85;1.83;;;9.80;99.90;;;;;;4812163;29;20197;-90
2023/11/06 00:27:08;;;;;;;7.75;1.98;;;9.70;99.90;;;;;;4811674;29;20613;-88
2023/11/06 00:29:33;;;;;;;4.00;1.63;;;9.70;99.90;;;;;;4812048;29;20217;-89
2023/11/06 00:32:02;;;;;;;6.30;1.88;;;9.80;99.90;;;;;;4828267;29;20247;-90
2023/11/06 00:34:28;;;;;;;8.85;1.65;;;9.70;99.90;;;;;;4811784;29;20221;-88
2023/11/06 00:36:54;;;;;;;7.60;1.60;;;9.70;99.90;;;;;;4814925;29;20342;-90
2023/11/06 00:39:20;;;;;;;5.50;1.65;;;9.70;99.90;;;;;;4811584;29;20691;-89
2023/11/06 00:41:46;;;;;;;5.22;1.60;;;9.70;99.90;;;;;;4811671;29;20229;-90
2023/11/06 00:44:12;;;;;;;6.65;2.22;;;9.70;99.90;;;;;;4811831;29;20196;-85
2023/11/06 00:46:37;;;;;;;4.45;1.58;;;9.80;99.90;;;;;;4811299;29;20221;-87
2023/11/06 00:49:03;;;;;;;6.80;2.00;;;9.80;99.90;;;;;;4811614;29;20190;-90
2023/11/06 00:51:29;;;;;;;8.57;1.95;;;9.80;99.90;;;;;;4810825;29;20648;-85
2023/11/06 00:53:55;;;;;;;5.65;1.52;;;9.80;99.90;;;;;;4827006;29;20526;-89
2023/11/06 00:56:20;;;;;;;5.15;1.73;;;9.80;99.90;;;;;;4811298;29;20471;-91
2023/11/06 00:58:46;;;;;;;6.05;1.67;;;9.80;99.90;;;;;;4811178;29;20622;-88
2023/11/06 01:01:19;;;;;;;3.33;1.60;;;9.80;99.90;;;;;;4827613;29;20221;-86
2023/11/06 01:03:44;;;;;;;3.75;1.90;;;9.80;99.90;;;;;;4803847;29;20228;-88
2023/11/06 01:06:10;;;;;;;4.60;1.48;;;9.80;99.90;;;;;;4814251;29;20800;-87
2023/11/06 01:08:36;;;;;;;5.68;1.45;;;9.70;99.90;;;;;;4811293;29;20690;-90
2023/11/06 01:11:02;;;;;;;4.25;1.63;;;9.70;99.90;;;;;;4811224;29;20197;-90
2023/11/06 01:13:27;;;;;;;4.15;1.50;;;9.70;99.90;;;;;;4811553;29;20261;-88
2023/11/06 01:15:53;;;;;;;5.35;1.80;;;9.60;99.90;;;;;;4811130;29;20204;-86
2023/11/06 01:18:20;;;;;;;6.63;1.88;;;9.60;99.90;;;;;;4810595;29;20194;-88
2023/11/06 01:20:46;;;;;;;5.82;1.70;;;9.50;99.90;;;;;;4810556;29;20213;-89
2023/11/06 01:23:12;;;;;;;3.60;1.70;;;9.50;99.90;;;;;;4810721;29;20221;-89
2023/11/06 01:25:42;;;;;;;6.68;1.83;;;9.50;99.90;;;;;;4810836;29;20198;-87
2023/11/06 01:28:09;;;;;;;3.67;1.73;;;9.50;99.90;;;;;;4810781;29;20194;-87
2023/11/06 01:30:35;;;;;;;4.57;1.55;;;9.50;99.90;;;;;;4810850;29;20205;-84
2023/11/06 01:33:00;;;;;;;7.90;1.65;;;9.40;99.90;;;;;;4810649;29;20284;-92
2023/11/06 01:35:30;;;;;;;6.43;1.60;;;9.40;99.90;;;;;;4810632;29;20230;-90
2023/11/06 01:37:58;;;;;;;7.05;1.77;;;9.40;99.90;;;;;;4814064;29;20245;-92
2023/11/06 01:40:24;;;;;;;6.95;1.85;;;9.40;99.90;;;;;;4810798;29;20201;-87
2023/11/06 01:42:52;;;;;;;9.82;1.85;;;9.40;99.90;;;;;;4810694;29;20205;-88
2023/11/06 01:45:18;;;;;;;4.70;1.58;;;9.40;99.90;;;;;;4810418;29;20583;-87
2023/11/06 01:47:45;;;;;;;8.38;1.98;;;9.40;99.90;;;;;;4810212;29;20194;-87
2023/11/06 01:50:12;;;;;;;6.88;1.42;;;9.40;99.90;;;;;;4826812;29;20193;-88
2023/11/06 01:52:38;;;;;;;6.70;1.95;;;9.40;99.90;;;;;;4810630;29;20706;-85
2023/11/06 01:55:04;;;;;;;3.40;1.35;;;9.40;99.90;;;;;;4810471;29;20198;-87
2023/11/06 01:57:31;;;;;;;8.50;1.45;;;9.30;99.90;;;;;;4826383;29;20182;-89
2023/11/06 01:59:58;;;;;;;6.80;1.67;;;9.40;99.90;;;;;;4810178;29;20653;-88
2023/11/06 02:02:27;;;;;;;3.60;1.33;;;9.30;99.90;;;;;;4810089;29;20240;-89
2023/11/06 02:04:53;;;;;;;5.57;1.27;;;9.30;99.90;;;;;;4810350;29;20221;-90
2023/11/06 02:07:19;;;;;;;6.65;1.50;;;9.30;99.90;;;;;;4813678;29;20193;-89
2023/11/06 02:09:44;;;;;;;4.20;1.50;;;9.40;99.90;;;;;;4810339;29;20281;-88
2023/11/06 02:12:11;;;;;;;7.03;1.70;;;9.40;99.90;;;;;;4810117;29;20190;-87
2023/11/06 02:14:50;;;;;;;5.88;1.40;;;9.40;99.90;;;;;;4809121;29;20194;-90
2023/11/06 02:17:16;;;;;;;6.97;2.15;;;9.40;99.90;;;;;;4810083;29;20227;-89
2023/11/06 02:19:42;;;;;;;5.15;1.40;;;9.40;99.90;;;;;;4810057;29;20519;-88
2023/11/06 02:22:11;;;;;;;8.13;1.60;;;9.40;99.90;;;;;;4810255;29;20235;-88
2023/11/06 02:24:38;;;;;;;5.90;1.60;;;9.50;99.90;;;;;;4815800;29;20185;-89
2023/11/06 02:27:04;;;;;;;8.35;1.85;;;9.50;99.90;;;;;;4809683;29;20581;-87
2023/11/06 02:29:29;;;;;;;5.50;1.60;;;9.60;99.90;;;;;;4813271;29;20185;-87
2023/11/06 02:31:57;;;;;;;7.25;1.90;;;9.60;99.90;;;;;;4809803;29;20732;-89
2023/11/06 02:34:23;;;;;;;8.20;1.80;;;9.60;99.90;;;;;;4809691;29;20194;-89
2023/11/06 02:36:49;;;;;;;12.23;1.90;;;9.70;99.90;;;;;;4809256;29;20240;-88
2023/11/06 02:39:15;;;;;;;5.68;1.98;;;9.70;99.90;;;;;;4809685;29;20242;-88
2023/11/06 02:41:40;;;;;;;9.35;1.85;;;9.70;99.90;;;;;;4809566;29;20225;-87
2023/11/06 02:44:06;;;;;;;5.78;1.25;;;9.70;99.90;;;;;;4809564;29;20281;-91
2023/11/06 02:46:32;;;;;;;6.57;1.58;;;9.70;99.90;;;;;;4809787;29;20197;-88
2023/11/06 02:49:01;;;;;;;4.20;1.83;;;9.70;99.90;;;;;;4809520;29;20194;-88
2023/11/06 02:51:27;;;;;;;6.25;1.83;;;9.70;99.90;;;;;;4809284;29;20197;-88
2023/11/06 02:53:52;;;;;;;8.15;1.88;;;9.70;99.90;;;;;;4809298;29;20249;-87
2023/11/06 02:56:18;;;;;;;6.45;1.63;;;9.80;99.90;;;;;;4809121;29;20201;-89
2023/11/06 02:58:44;;;;;;;2.65;1.52;;;9.80;99.90;;;;;;4825708;29;20212;-89
2023/11/06 03:01:09;;;;;;;6.03;1.50;;;9.80;99.90;;;;;;4809432;29;20278;-87
2023/11/06 03:03:35;;;;;;;7.28;1.92;;;9.90;99.90;;;;;;4809506;29;20189;-87
2023/11/06 03:06:01;;;;;;;8.00;1.70;;;9.90;99.90;;;;;;4809456;29;20196;-88
2023/11/06 03:08:27;;;;;;;6.10;1.45;;;9.80;99.90;;;;;;4808959;29;20198;-92
2023/11/06 03:10:52;;;;;;;5.35;1.50;;;9.90;99.90;;;;;;4815776;29;20273;-91
2023/11/06 03:13:18;;;;;;;8.13;1.95;;;9.80;99.90;;;;;;4809348;29;20280;-90
2023/11/06 03:15:44;;;;;;;5.93;1.90;;;9.90;99.90;;;;;;4809478;29;20652;-91
2023/11/06 03:18:10;;;;;;;4.20;1.70;;;9.90;99.90;;;;;;4808852;29;20246;-88
2023/11/06 03:20:38;;;;;;;7.65;2.05;;;9.90;99.90;;;;;;4825361;29;20202;-89
2023/11/06 03:23:04;;;;;;;8.20;2.13;;;9.90;99.90;;;;;;4808869;29;20202;-91
2023/11/06 03:25:30;;;;;;;5.60;2.10;;;10.00;99.90;;;;;;4808911;29;20975;-91
2023/11/06 03:27:55;;;;;;;7.00;1.95;;;10.10;99.90;;;;;;4808884;29;20237;-88
2023/11/06 03:30:22;;;;;;;6.68;1.80;;;10.10;99.90;;;;;;4809391;29;20190;-90
2023/11/06 03:32:48;;;;;;;6.22;1.95;;;10.10;99.90;;;;;;4809150;29;20202;-91
2023/11/06 03:35:13;;;;;;;9.65;2.47;;;10.00;99.90;;;;;;4808947;29;20297;-87
2023/11/06 03:37:39;;;;;;;7.63;1.90;;;10.00;99.90;;;;;;4808408;29;20237;-91
2023/11/06 03:40:06;;;;;;;4.85;1.70;;;9.90;99.90;;;;;;4815033;29;20204;-93
2023/11/06 03:42:32;;;;;;;6.55;1.90;;;9.90;99.90;;;;;;4809752;29;20258;-90
2023/11/06 03:44:57;;;;;;;5.63;1.55;;;9.90;99.90;;;;;;4825145;29;20276;-91
2023/11/06 03:47:23;;;;;;;8.07;1.75;;;9.90;99.90;;;;;;4808675;29;20193;-89
2023/11/06 03:49:50;;;;;;;5.75;1.67;;;9.90;99.90;;;;;;4809107;29;20265;-86
2023/11/06 03:52:16;;;;;;;3.30;1.20;;;9.80;99.90;;;;;;4808465;29;20288;-84
2023/11/06 03:54:42;;;;;;;5.07;1.52;;;9.70;99.90;;;;;;4808716;29;20339;-90
2023/11/06 03:57:08;;;;;;;8.18;1.45;;;9.70;99.90;;;;;;4808823;29;20220;-89
2023/11/06 03:59:33;;;;;;;8.10;1.83;;;9.70;99.90;;;;;;4808698;29;20234;-91
2023/11/06 04:01:59;;;;;;;6.43;1.63;;;9.70;99.90;;;;;;4808773;29;20222;-92
2023/11/06 04:04:25;;;;;;;5.93;1.55;;;9.70;99.90;;;;;;4808568;29;20190;-91
2023/11/06 04:06:50;;;;;;;6.05;1.70;;;9.70;99.90;;;;;;4808238;29;20203;-89
2023/11/06 04:09:16;;;;;;;4.20;1.60;;;9.70;99.90;;;;;;4808482;29;20201;-91
2023/11/06 04:11:42;;;;;;;5.57;1.80;;;9.80;99.90;;;;;;4815811;29;20304;-89
2023/11/06 04:14:08;;;;;;;4.68;1.55;;;9.70;99.90;;;;;;4808492;29;20202;-88
2023/11/06 04:16:34;;;;;;;9.23;1.92;;;9.70;99.90;;;;;;4808673;29;20810;-86
2023/11/06 04:19:00;;;;;;;5.82;1.30;;;9.70;99.90;;;;;;4808727;29;20201;-87
2023/11/06 04:21:28;;;;;;;2.97;1.40;;;9.70;99.90;;;;;;4808704;29;20761;-86
2023/11/06 04:23:54;;;;;;;7.45;1.83;;;9.70;99.90;;;;;;4825008;29;20535;-88
2023/11/06 04:26:20;;;;;;;6.30;1.50;;;9.70;99.90;;;;;;4808434;29;20254;-87
2023/11/06 04:28:46;;;;;;;12.10;2.33;;;9.70;99.90;;;;;;4824854;29;20186;-87
2023/11/06 04:31:12;;;;;;;4.28;1.40;;;9.70;99.90;;;;;;4808475;29;20243;-89
2023/11/06 04:33:37;;;;;;;7.70;1.98;;;9.70;99.90;;;;;;4808362;29;20197;-89
2023/11/06 04:36:04;;;;;;;6.53;1.70;;;9.80;99.90;;;;;;4824220;29;20236;-87
2023/11/06 04:38:31;;;;;;;5.28;1.48;;;9.80;99.90;;;;;;4826328;29;20611;-88
2023/11/06 04:40:56;;;;;;;6.07;1.27;;;9.80;99.90;;;;;;4818759;29;20237;-91
2023/11/06 04:43:22;;;;;;;5.25;1.63;;;9.80;99.90;;;;;;4811596;29;20206;-91
2023/11/06 04:45:48;;;;;;;4.40;1.55;;;9.80;99.90;;;;;;4811749;29;20284;-93
2023/11/06 04:48:14;;;;;;;6.03;1.42;;;9.80;99.90;;;;;;4811307;29;20197;-88
2023/11/06 04:50:40;;;;;;;6.55;1.40;;;9.80;99.90;;;;;;4811406;29;20200;-91
2023/11/06 04:53:06;;;;;;;7.78;1.23;;;9.80;99.90;;;;;;4811109;29;20660;-89
2023/11/06 04:55:31;;;;;;;4.20;1.20;;;9.80;99.90;;;;;;4811352;29;20190;-91
2023/11/06 04:57:57;;;;;;;4.63;1.38;;;9.70;99.90;;;;;;4827635;29;20202;-92
2023/11/06 05:00:23;;;;;;;5.80;1.63;;;9.70;99.90;;;;;;4811201;29;20205;-94
2023/11/06 05:02:49;;;;;;;6.88;1.80;;;9.70;99.90;;;;;;4811107;29;20274;-91
2023/11/06 05:05:14;;;;;;;3.33;1.10;;;9.70;99.90;;;;;;4810836;29;20198;-89
2023/11/06 05:07:41;;;;;;;7.32;1.10;;;9.70;99.90;;;;;;4810698;29;20330;-91
2023/11/06 05:10:08;;;;;;;5.03;1.20;;;9.70;99.90;;;;;;4817361;29;20198;-92
2023/11/06 05:12:36;;;;;;;4.28;1.13;;;9.80;99.90;;;;;;4811638;29;20645;-90
2023/11/06 05:15:03;;;;;;;7.32;1.33;;;9.70;99.90;;;;;;4811135;29;20200;-91
2023/11/06 05:17:29;;;;;;;6.15;1.48;;;9.80;99.90;;;;;;4810846;29;20223;-89
2023/11/06 05:19:55;;;;;;;10.70;1.58;;;9.70;99.90;;;;;;4810438;29;20277;-90
2023/11/06 05:22:22;;;;;;;3.72;1.10;;;9.70;99.90;;;;;;4810630;29;20678;-91
2023/11/06 05:24:47;;;;;;;6.28;1.30;;;9.70;99.90;;;;;;4811127;29;20288;-91
2023/11/06 05:27:13;;;;;;;4.22;1.30;;;9.80;99.90;;;;;;4810800;29;20289;-87
2023/11/06 05:29:39;;;;;;;4.63;1.20;;;9.80;99.90;;;;;;4803616;29;20250;-88
2023/11/06 05:32:05;;;;;;;8.68;1.40;;;9.80;99.90;;;;;;4810865;29;20541;-90
2023/11/06 05:34:31;;;;;;;4.47;1.15;;;9.80;99.90;;;;;;4810768;29;20193;-90
2023/11/06 05:36:58;;;;;;;4.63;1.17;;;9.80;99.90;;;;;;4810247;29;20320;-86
2023/11/06 05:39:24;;;;;;;5.40;0.80;;;9.80;99.90;;;;;;4810767;29;20186;-87
2023/11/06 05:41:50;;;;;;;2.30;0.88;;;9.90;99.90;;;;;;4804442;29;20611;-89
2023/11/06 05:44:16;;;;;;;3.35;1.02;;;9.90;99.90;;;;;;4810589;29;20198;-87
2023/11/06 05:46:43;;;;;;;4.45;1.27;;;9.90;99.90;;;;;;4810587;29;20261;-86
2023/11/06 05:49:10;;;;;;;3.85;1.08;;;9.90;99.90;;;;;;4805019;29;20179;-86
2023/11/06 05:51:37;;;;;;;3.58;1.10;;;9.90;99.90;;;;;;4805847;29;20288;-85
2023/11/06 05:54:03;;;;;;;4.90;1.13;;;9.90;99.90;;;;;;4805386;29;20190;-88
2023/11/06 05:56:29;;;;;;;9.50;1.25;;;9.90;99.90;;;;;;4810013;29;20205;-87
2023/11/06 05:58:54;;;;;;;4.47;1.52;;;9.90;99.90;;;;;;4810186;29;20209;-88
2023/11/06 06:01:20;;;;;;;2.30;0.90;;;9.90;99.90;;;;;;4810237;29;20334;-87
2023/11/06 06:03:46;;;;;;;5.03;1.25;;;9.90;99.90;;;;;;4809287;29;20577;-89
2023/11/06 06:06:14;;;;;;;2.45;1.08;;;9.90;99.90;;;;;;4809983;29;20209;-88
2023/11/06 06:08:40;;;;;;;6.07;1.40;;;9.90;99.90;;;;;;4826254;29;20182;-86
2023/11/06 06:11:06;;;;;;;3.10;1.10;;;9.90;99.90;;;;;;4826865;29;20190;-85
2023/11/06 06:13:32;;;;;;;5.55;1.38;;;9.80;99.90;;;;;;4810144;29;20190;-89
2023/11/06 06:15:57;;;;;;;4.20;1.13;;;9.80;99.90;;;;;;4809896;29;20201;-89
2023/11/06 06:18:23;;;;;;;4.45;1.30;;;9.80;99.90;;;;;;4812732;29;20192;-87
2023/11/06 06:20:49;;;;;;;1.55;0.90;;;9.80;99.90;;;;;;4809867;29;20197;-89
2023/11/06 06:23:14;;;;;;;2.55;1.02;;;9.70;99.90;;;;;;4809559;29;20729;-86
2023/11/06 06:25:43;;;;;;;4.60;1.13;;;9.80;99.90;;;;;;4810061;29;20194;-86
2023/11/06 06:28:09;;;;;;;3.40;1.20;;;9.80;99.90;;;;;;4809678;29;20278;-89
2023/11/06 06:30:34;;;;;;;3.90;1.02;;;9.80;99.90;;;;;;4810158;29;20652;-88
2023/11/06 06:33:00;;;;;;;6.25;1.20;;;9.80;99.90;;;;;;4814338;29;20276;-88
2023/11/06 06:35:26;;;;;;;5.90;1.10;;;9.80;99.90;;;;;;4809572;29;20206;-88
2023/11/06 06:37:52;;;;;;;3.35;1.20;;;9.80;99.90;;;;;;4811626;29;20257;-87
2023/11/06 06:40:17;;;;;;;3.40;1.10;;;9.80;99.90;;;;;;4812045;29;20198;-87
2023/11/06 06:42:44;;;;;;;4.35;1.23;;;9.80;99.90;;;;;;4809278;29;20226;-87
2023/11/06 06:45:10;;;;;;;5.22;1.52;;;9.80;99.90;;;;;;4814189;29;20181;-88
2023/11/06 06:47:35;;;;;;;3.42;1.23;;;9.80;99.90;;;;;;4809978;29;20257;-86
2023/11/06 06:50:03;;;;;;;6.18;1.60;;;9.70;99.90;;;;;;4809725;29;20229;-86
2023/11/06 06:52:29;;;;;;;4.07;1.20;;;9.60;99.90;;;;;;4809595;29;20281;-91
2023/11/06 06:54:55;;;;;;;3.17;1.30;;;9.60;99.90;;;;;;4809553;29;20680;-86
2023/11/06 06:57:20;;;;;;;5.75;1.55;;;9.70;99.90;;;;;;4809403;29;20194;-86
2023/11/06 06:59:46;;;;;;;3.22;1.33;;;9.70;99.90;;;;;;4809041;29;20254;-86
2023/11/06 07:02:12;;;;;;;3.72;1.23;;;9.70;99.90;;;;;;4808909;29;20225;-83
2023/11/06 07:04:38;;;;;;;1.92;1.20;;;9.70;99.90;;;;;;4809448;29;20197;-87
2023/11/06 07:07:06;;;;;;;3.95;0.98;;;9.70;99.90;;;;;;4809192;29;20198;-85
2023/11/06 07:09:32;;;;;;;6.75;1.73;;;9.70;99.90;;;;;;4809317;29;20242;-84
2023/11/06 07:11:58;;;;;;;2.65;1.00;;;9.80;99.90;;;;;;4809162;29;20219;-85
2023/11/06 07:14:24;;;;;;;7.40;1.40;;;9.80;99.90;;;;;;4825356;29;20193;-87
2023/11/06 07:16:52;;;;;;;3.33;1.40;;;9.80;99.90;;;;;;4814632;29;20198;-87
2023/11/06 07:19:18;;;;;;;4.28;1.40;;;9.90;99.90;;;;;;4809126;29;20190;-86
2023/11/06 07:21:44;;;;;;;3.83;1.40;;;9.90;99.90;;;;;;4809114;29;20229;-88
2023/11/06 07:24:10;;;;;;;5.75;1.50;;;9.90;99.90;;;;;;4809120;29;20193;-87
2023/11/06 07:26:36;;;;;;;3.60;1.20;;;9.90;99.90;;;;;;4808485;29;20201;-87
2023/11/06 07:29:03;;;;;;;6.05;1.60;;;10.00;99.90;;;;;;4809035;29;20198;-85
2023/11/06 07:31:28;;;;;;;6.18;1.52;;;10.00;99.90;;;;;;4809359;29;20630;-88
2023/11/06 07:33:54;;;;;;;4.82;1.30;;;10.00;99.90;;;;;;4808961;29;20205;-87
2023/11/06 07:36:20;;;;;;;7.05;1.70;;;10.00;99.90;;;;;;4812871;29;20228;-88
2023/11/06 07:38:46;;;;;;;4.22;1.58;;;10.00;99.90;;;;;;4809357;29;20205;-85
2023/11/06 07:41:12;;;;;;;6.88;1.70;;;10.00;99.90;;;;;;4808569;29;20221;-82
2023/11/06 07:43:38;;;;;;;4.57;1.40;;;10.10;99.90;;;;;;4808763;29;20229;-86
2023/11/06 07:46:05;;;;;;;5.70;1.70;;;10.10;99.90;;;;;;4808971;29;20189;-85
2023/11/06 07:48:31;;;;;;;5.43;1.40;;;10.10;99.90;;;;;;4825121;29;20201;-87
2023/11/06 07:50:59;;;;;;;6.18;2.20;;;10.20;99.90;;;;;;4809108;29;20193;-87
2023/11/06 07:53:25;;;;;;;7.43;1.70;;;10.20;99.90;;;;;;4824812;29;20349;-87
2023/11/06 07:55:51;;;;;;;6.15;1.90;;;10.20;99.90;;;;;;4808698;29;20277;-86
2023/11/06 07:58:17;;;;;;;10.00;1.65;;;10.20;99.90;;;;;;4808470;29;20293;-87
2023/11/06 08:00:43;;;;;;;5.13;1.55;;;10.30;99.90;;;;;;4808538;29;20261;-87
2023/11/06 08:03:09;;;;;;;6.70;1.48;;;10.30;99.90;;;;;;4808573;29;20641;-86
2023/11/06 08:05:37;;;;;;;5.32;1.25;;;10.40;99.90;;;;;;4808829;29;20231;-88
2023/11/06 08:08:03;;;;;;;2.80;1.45;;;10.40;99.90;;;;;;4808643;29;20231;-88
2023/11/06 08:10:31;;;;;;;7.72;1.50;;;10.50;99.90;;;;;;4808301;29;20193;-87
2023/11/06 08:12:58;;;;;;;4.70;1.40;;;10.40;99.90;;;;;;4810184;29;20292;-92
2023/11/06 08:15:24;;;;;;;3.65;1.50;;;10.40;99.90;;;;;;4812022;29;20197;-89
2023/11/06 08:17:50;;;;;;;4.72;1.23;;;10.50;99.90;;;;;;4811921;29;20227;-87
2023/11/06 08:20:15;;;;;;;7.32;1.60;;;10.60;99.90;;;;;;4812044;29;20201;-88
2023/11/06 08:22:41;;;;;;;4.18;1.38;;;10.70;99.90;;;;;;4812155;29;20240;-88
2023/11/06 08:25:07;;;;;;;4.82;1.30;;;10.70;99.90;;;;;;4811117;29;20640;-84
2023/11/06 08:27:33;;;;;;;6.75;1.45;;;10.80;99.90;;;;;;4808530;29;20194;-89
2023/11/06 08:30:02;;;;;;;4.25;1.30;;;10.80;99.90;;;;;;4811910;29;20198;-89
2023/11/06 08:32:27;;;;;;;9.63;1.73;;;10.80;99.90;;;;;;4811806;29;20198;-88
2023/11/06 08:34:53;;;;;;;5.10;1.20;;;10.80;99.90;;;;;;4813675;29;20194;-87
2023/11/06 08:37:19;;;;;;;6.93;1.30;;;10.80;99.90;;;;;;4813785;29;20237;-85
2023/11/06 08:39:45;;;;;;;4.47;1.35;;;10.80;99.90;;;;;;4811800;29;20229;-86
2023/11/06 08:42:14;;;;;;;7.00;1.20;;;10.80;99.90;;;;;;4811409;29;20327;-88
2023/11/06 08:44:45;;;;;;;7.35;1.60;;;10.70;99.90;;;;;;4804478;29;20200;-90
2023/11/06 08:47:11;;;;;;;4.30;0.95;;;10.70;99.90;;;;;;4811574;29;20201;-85
2023/11/06 08:49:37;;;;;;;7.80;1.38;;;10.80;99.90;;;;;;4811537;29;20234;-87
2023/11/06 08:52:04;;;;;;;10.63;1.67;;;10.80;99.90;;;;;;4811742;29;20201;-86
2023/11/06 08:54:30;;;;;;;5.30;1.55;;;10.80;99.90;;;;;;4811081;29;20190;-86
2023/11/06 08:56:57;;;;;;;3.42;1.05;;;10.80;99.90;;;;;;4827267;29;20539;-87
2023/11/06 08:59:22;;;;;;;6.07;1.42;;;10.90;99.90;;;;;;4827608;29;20224;-87
2023/11/06 09:01:48;;;;;;;4.72;0.90;;;10.80;99.90;;;;;;4811327;29;20676;-88
2023/11/06 09:04:16;;;;;;;5.03;1.05;;;10.90;99.90;;;;;;4811407;29;20660;-89
2023/11/06 09:06:42;;;;;;;7.15;0.95;;;10.90;99.90;;;;;;4816027;29;20221;-87
2023/11/06 09:09:08;;;;;;;3.67;1.05;;;10.90;99.90;;;;;;4811129;29;20203;-88
2023/11/06 09:11:41;;;;;;;3.92;1.42;;;10.90;99.90;;;;;;4810872;29;20201;-89
2023/11/06 09:14:08;;;;;;;2.88;0.95;;;11.00;99.90;;;;;;4811054;29;20693;-85
2023/11/06 09:16:38;;;;;;;4.85;1.77;;;11.00;99.90;;;;;;4811109;29;20200;-90
2023/11/06 09:19:07;;;;;;;4.60;0.90;;;11.00;99.90;;;;;;4811208;29;20231;-86
2023/11/06 09:21:34;;;;;;;11.57;1.67;;;11.00;99.90;;;;;;4810758;29;20258;-85
2023/11/06 09:24:00;;;;;;;3.35;0.90;;;11.10;99.90;;;;;;4810601;29;20246;-89
2023/11/06 09:26:26;;;;;;;6.03;1.55;;;11.10;99.90;;;;;;4810447;29;20201;-89
2023/11/06 09:28:55;;;;;;;2.80;0.90;;;11.10;99.90;;;;;;4811055;29;20186;-88
2023/11/06 09:31:21;;;;;;;3.65;0.90;;;11.10;99.90;;;;;;4810210;29;20186;-88
2023/11/06 09:33:48;;;;;;;4.60;1.23;;;11.10;99.90;;;;;;4810798;29;20208;-89
2023/11/06 09:36:14;;;;;;;9.40;1.92;;;11.00;99.90;;;;;;4815244;29;20238;-86
2023/11/06 09:38:40;;;;;;;5.68;0.98;;;11.00;99.90;;;;;;4826693;29;20537;-87
2023/11/06 09:41:06;;;;;;;6.95;1.25;;;11.10;99.90;;;;;;4826796;29;20251;-90
2023/11/06 09:43:32;;;;;;;5.55;1.15;;;11.20;99.90;;;;;;4826775;29;20198;-88
2023/11/06 09:45:58;;;;;;;5.00;1.20;;;11.30;99.90;;;;;;4810576;29;20645;-90
2023/11/06 09:48:30;;;;;;;2.72;1.02;;;11.40;99.90;;;;;;4810288;29;20198;-86
2023/11/06 09:50:57;;;;;;;5.57;1.13;;;11.40;99.90;;;;;;4826608;29;20182;-85
2023/11/06 09:53:24;;;;;;;3.00;1.02;;;11.50;99.90;;;;;;4810377;29;20197;-88
2023/11/06 09:55:54;;;;;;;4.10;1.08;;;11.40;99.90;;;;;;4810483;29;20630;-91
2023/11/06 09:58:19;;;;;;;5.05;1.00;;;11.40;99.90;;;;;;4810127;29;20538;-88
2023/11/06 10:00:51;;;;;;;6.75;1.58;;;11.40;99.90;;;;;;4826686;29;20186;-87
2023/11/06 10:03:17;;;;;;;4.72;0.80;;;11.40;99.90;;;;;;4810209;29;20262;-88
2023/11/06 10:05:43;;;;;;;3.60;0.88;;;11.30;99.90;;;;;;4831596;29;20266;-86
2023/11/06 10:08:09;;;;;;;6.30;1.05;;;11.30;99.90;;;;;;4810422;29;20638;-88
2023/11/06 10:10:35;;;;;;;4.05;1.17;;;11.30;99.90;;;;;;4809997;29;20200;-87
2023/11/06 10:13:05;;;;;;;3.47;0.95;;;11.30;99.90;;;;;;4810357;29;20201;-86
2023/11/06 10:15:32;;;;;;;6.22;1.20;;;11.30;99.90;;;;;;4809947;29;20194;-88
2023/11/06 10:18:21;;;;;;;6.63;1.10;;;11.40;99.90;;;;;;4810053;29;20221;-86
2023/11/06 10:20:50;;;;;;;5.95;1.20;;;11.40;99.90;;;;;;4819555;29;20190;-86
2023/11/06 10:23:26;;;;;;;5.15;1.38;;;11.40;99.90;;;;;;4810004;29;20250;-86
2023/11/06 10:25:56;;;;;;;2.88;0.85;;;11.40;99.90;;;;;;4803693;29;20185;-88
2023/11/06 10:28:23;;;;;;;4.53;1.20;;;11.30;99.90;;;;;;4809906;29;20209;-88
2023/11/06 10:30:54;;;;;;;9.13;1.30;;;11.30;99.90;;;;;;4809918;29;20198;-87
2023/11/06 10:33:21;;;;;;;7.45;1.40;;;11.30;99.90;;;;;;4809877;29;20189;-87
2023/11/06 10:35:47;;;;;;;6.45;1.10;;;11.20;99.90;;;;;;4830222;29;20190;-89
2023/11/06 10:38:29;;;;;;;4.40;1.25;;;11.30;99.90;;;;;;4809752;29;20210;-88
2023/11/06 10:41:00;;;;;;;8.80;1.38;;;11.30;99.90;;;;;;4809300;29;20194;-88
2023/11/06 10:43:26;;;;;;;6.15;1.52;;;11.40;99.90;;;;;;4809590;29;20220;-89
2023/11/06 10:45:52;;;;;;;6.63;1.50;;;11.40;99.90;;;;;;4826323;29;20614;-88
2023/11/06 10:48:32;;;;;;;4.72;1.48;;;11.50;99.90;;;;;;4809697;29;20197;-88
2023/11/06 10:50:59;;;;;;;6.75;1.60;;;11.50;99.90;;;;;;4809707;29;20226;-88
2023/11/06 10:53:26;;;;;;;7.03;1.60;;;11.50;99.90;;;;;;4808887;29;20198;-87
2023/11/06 10:55:53;;;;;;;5.35;1.42;;;11.60;99.90;;;;;;4809097;29;20197;-86
2023/11/06 10:58:21;;;;;;;7.72;1.67;;;11.70;99.90;;;;;;4808942;29;20197;-87
2023/11/06 11:00:47;;;;;;;8.03;1.60;;;11.80;99.90;;;;;;4809169;29;20229;-87
2023/11/06 11:03:15;;;;;;;4.88;1.45;;;11.90;99.90;;;;;;4808386;29;20435;-86
2023/11/06 11:05:41;;;;;;;9.25;1.98;;;11.80;99.90;;;;;;4813969;29;20190;-85
2023/11/06 11:08:08;;;;;;;6.80;1.85;;;11.80;99.90;;;;;;4808734;29;20201;-85
2023/11/06 11:10:34;;;;;;;5.90;1.48;;;11.80;99.90;;;;;;4808761;29;20190;-86
2023/11/06 11:13:02;;;;;;;8.75;1.85;;;11.80;99.90;;;;;;4809135;29;20233;-85
2023/11/06 11:15:33;;;;;;;8.85;2.10;;;11.70;99.90;;;;;;4809159;29;20676;-88
2023/11/06 11:18:09;;;;;;;5.00;1.60;;;11.80;99.90;;;;;;4808890;29;20211;-84
2023/11/06 11:20:55;;;;;;;5.47;1.70;;;11.70;99.90;;;;;;4808847;29;20586;-85
2023/11/06 11:23:42;;;;;;;6.03;1.55;;;11.80;99.90;;;;;;4809187;29;20212;-86
2023/11/06 11:26:09;;;;;;;7.65;2.08;;;11.80;99.90;;;;;;4808668;29;20196;-90
2023/11/06 11:29:09;;;;;;;8.27;1.83;;;11.90;99.90;;;;;;4808554;29;20201;-86
2023/11/06 11:31:42;;;;;;;8.73;2.00;;;12.00;99.90;;;;;;4770569;29;20527;-86
2023/11/06 11:34:07;;;;;;;8.85;2.17;;;12.00;99.90;;;;;;4808686;29;20201;-83
2023/11/06 11:36:38;;;;;;;10.68;1.95;;;12.00;99.90;;;;;;4810384;29;20238;-85
2023/11/06 11:39:13;;;;;;;10.20;2.30;;;12.10;99.90;;;;;;4805604;29;20194;-87
2023/11/06 11:42:04;;;;;;;11.25;1.70;;;12.40;99.90;;;;;;4805411;29;20238;-83
2023/11/06 11:44:30;;;;;;;9.77;2.15;;;12.60;99.90;;;;;;4805426;29;20695;-86
2023/11/06 11:47:00;;;;;;;8.90;1.45;;;12.70;99.90;;;;;;4808630;29;20202;-87
2023/11/06 11:49:45;;;;;;;8.95;1.58;;;12.80;99.90;;;;;;4809295;29;20565;-87
2023/11/06 11:52:30;;;;;;;5.25;1.73;;;12.80;99.90;;;;;;4809352;29;20186;-84
2023/11/06 11:54:56;;;;;;;9.65;2.22;;;12.70;99.90;;;;;;4808052;29;20408;-85
2023/11/06 11:57:22;;;;;;;11.02;1.67;;;12.60;99.90;;;;;;4808892;29;20195;-83
2023/11/06 11:59:50;;;;;;;7.65;1.70;;;12.40;99.90;;;;;;4809411;29;20248;-80
2023/11/06 12:02:27;;;;;;;6.05;1.70;;;12.30;99.90;;;;;;4809229;29;20225;-85
2023/11/06 12:05:11;;;;;;;6.38;1.80;;;12.20;99.90;;;;;;4806498;29;20646;-87
2023/11/06 12:07:44;;;;;;;7.97;1.77;;;12.10;99.90;;;;;;4809561;29;20206;-85
2023/11/06 12:10:10;;;;;;;7.10;1.98;;;12.00;99.90;;;;;;4808287;29;20194;-83
2023/11/06 12:12:37;;;;;;;7.07;1.35;;;12.00;99.90;;;;;;4808730;29;20296;-85
2023/11/06 12:15:10;;;;;;;8.07;1.40;;;11.90;99.90;;;;;;4808870;29;20202;-86
2023/11/06 12:17:37;;;;;;;6.43;1.40;;;11.90;99.90;;;;;;4808857;29;20198;-84
2023/11/06 12:20:13;;;;;;;6.15;1.83;;;12.00;99.90;;;;;;4808877;29;20548;-87
2023/11/06 12:22:46;;;;;;;6.88;1.30;;;12.10;99.90;;;;;;4808703;29;20218;-87
2023/11/06 12:25:12;;;;;;;7.95;1.52;;;12.10;99.90;;;;;;4808680;29;20277;-90
2023/11/06 12:27:39;;;;;;;5.80;1.70;;;12.10;99.90;;;;;;4808517;29;20298;-84
2023/11/06 12:30:07;;;;;;;6.90;1.40;;;12.20;99.90;;;;;;4808768;29;20186;-86
2023/11/06 12:32:35;;;;;;;8.43;1.48;;;12.20;99.90;;;;;;4808308;29;20202;-86
2023/11/06 12:35:19;;;;;;;6.65;1.48;;;12.20;99.90;;;;;;4811496;29;20705;-84
2023/11/06 12:37:55;;;;;;;8.02;1.60;;;12.30;99.90;;;;;;4801396;29;20245;-83
2023/11/06 12:40:26;;;;;;;6.53;1.50;;;12.40;99.90;;;;;;4808605;29;20194;-86
2023/11/06 12:42:57;;;;;;;4.50;1.05;;;12.60;99.90;;;;;;4808366;29;20661;-88
2023/11/06 12:45:34;;;;;;;8.20;1.40;;;12.60;99.90;;;;;;4808472;29;20646;-87
2023/11/06 12:48:18;;;;;;;8.68;2.10;;;12.70;99.90;;;;;;4808359;29;20285;-85
2023/11/06 12:51:04;;;;;;;7.97;1.77;;;12.70;99.90;;;;;;4801187;29;20837;-85
2023/11/06 12:53:35;;;;;;;6.82;1.40;;;12.90;99.90;;;;;;4808221;29;20251;-85